KWDG/WDG METAR and TAF weather

Enter ICAO airport designator
Station Type Date Time Source
KWDG METAR 2018/12/15 23:45 UTC NOAA

KWDG 152345Z 11005KT 10SM SCT200 05/M06 A3014


Station Type Date Time Source
KWDG Decoded METAR 2018/12/15 23:45 UTC NOAA

Enid, Enid Woodring Regional Airport, OK, United States (KWDG) 36-22-45N 097-47-28W
Dec 15, 2018 - 06:45 PM EST / 2018.12.15 2345 UTC
Wind: from the ESE (110 degrees) at 6 MPH (5 KT):0
Visibility: 10 mile(s):0
Sky conditions: partly cloudy
Temperature: 41 F (5 C)
Dew Point: 21 F (-6 C)
Relative Humidity: 44%
Pressure (altimeter): 30.14 in. Hg (1020 hPa)
ob: KWDG 152345Z 11005KT 10SM SCT200 05/M06 A3014
cycle: 0

Station Type Date Time Source
KWDG TAF UTC NOAA

Error!


Example: see airport list